Hallam, Nebraska
Current Conditions -  °F | °C
As of 7:55 AM on Friday 31 Oct 2014 (Local Time) from KBIE Reporting Station
Clear Clear  
Wind Chill: 16°   Ceiling: Unl
Heat Index: 25°   Visibility: 10mi
Dew Point: 21°   Wind: 8mph
Humidity: 86%   Direction: 360°N
Pressure: 30.54"   Gusts: NA
Location:  40.54°N, 96.79°W
Report Text: KBIE 311255Z AUTO 36007KT 10SM CLR M04/M06 A3054 RMK AO2 T10391060
Loading
Personal Weather Stations






























Interactive Weather Map New forecast layout! Learn more

10-Day Weather Forecast

Advertisements
Track Severe Weather on mobile